Towne Oaks, Illinois
Current Conditions -  °F | °C
As of 9:54 PM on Friday 24 Oct 2014 (Local Time) from KPIA Reporting Station
Overcast Overcast  
Wind Chill: 63°   Ceiling: 3600
Heat Index: 63°   Visibility: 10mi
Dew Point: 51°   Wind: 9mph
Humidity: 65%   Direction: 190°S
Pressure: 29.98"   Gusts: NA
Location:  40.5996°N, 89.5548°W
Report Text: KPIA 250254Z 19008KT 10SM BKN036 OVC055 17/11 A2998 RMK AO2 SLP150 T01720106 51006
Loading
Personal Weather Stations






























Interactive Weather Map
Tropical Storm Tracking
New forecast layout! Learn more

10-Day Weather Forecast

Advertisements
Track Severe Weather on mobile